createdAt,value
2018-05-06T00:00:06.856Z,1019.73
2018-05-06T00:01:15.495Z,1019.76
2018-05-06T00:02:24.135Z,1019.74
2018-05-06T00:03:32.791Z,1019.78
2018-05-06T00:04:41.428Z,1019.74
2018-05-06T00:05:50.328Z,1019.79
2018-05-06T00:06:58.968Z,1019.77
2018-05-06T00:08:07.608Z,1019.75
2018-05-06T00:09:16.262Z,1019.79
2018-05-06T00:10:24.900Z,1019.77
2018-05-06T00:11:33.545Z,1019.77
2018-05-06T00:12:42.179Z,1019.85
2018-05-06T00:13:50.831Z,1019.85
2018-05-06T00:14:59.471Z,1019.81
2018-05-06T00:16:08.125Z,1019.78
2018-05-06T00:17:16.757Z,1019.78
2018-05-06T00:18:25.410Z,1019.77
2018-05-06T00:19:34.052Z,1019.76
2018-05-06T00:20:42.699Z,1019.75
2018-05-06T00:21:51.329Z,1019.73
2018-05-06T00:22:59.972Z,1019.72
2018-05-06T00:24:08.619Z,1019.76
2018-05-06T00:25:17.530Z,1019.73
2018-05-06T00:26:26.175Z,1019.76
2018-05-06T00:27:34.816Z,1019.78
2018-05-06T00:28:43.465Z,1019.79
2018-05-06T00:29:52.106Z,1019.81
2018-05-06T00:31:01.020Z,1019.82
2018-05-06T00:32:09.924Z,1019.83
2018-05-06T00:33:18.564Z,1019.85
2018-05-06T00:34:27.208Z,1019.81
2018-05-06T00:35:35.854Z,1019.83
2018-05-06T00:36:44.494Z,1019.79
2018-05-06T00:37:53.140Z,1019.78
2018-05-06T00:39:01.785Z,1019.75
2018-05-06T00:40:10.430Z,1019.73
2018-05-06T00:41:19.071Z,1019.69
2018-05-06T00:42:27.980Z,1019.72
2018-05-06T00:43:36.618Z,1019.67
2018-05-06T00:44:45.258Z,1019.65
2018-05-06T00:45:54.166Z,1019.66
2018-05-06T00:47:02.808Z,1019.63
2018-05-06T00:48:11.721Z,1019.63
2018-05-06T00:49:20.359Z,1019.61
2018-05-06T00:50:29.005Z,1019.61
2018-05-06T00:51:37.647Z,1019.58
2018-05-06T00:52:46.555Z,1019.6
2018-05-06T00:53:55.192Z,1019.61
2018-05-06T00:55:03.844Z,1019.59
2018-05-06T00:56:12.740Z,1019.6
2018-05-06T00:57:21.385Z,1019.58
2018-05-06T00:58:30.024Z,1019.54
2018-05-06T00:59:38.668Z,1019.55
2018-05-06T01:00:47.313Z,1019.55
2018-05-06T01:01:55.951Z,1019.58
2018-05-06T01:03:04.592Z,1019.55
2018-05-06T01:04:13.229Z,1019.59
2018-05-06T01:05:21.869Z,1019.62
2018-05-06T01:06:30.510Z,1019.6
2018-05-06T01:07:39.155Z,1019.62
2018-05-06T01:08:47.793Z,1019.61
2018-05-06T01:09:56.437Z,1019.63
2018-05-06T01:11:05.339Z,1019.61
2018-05-06T01:12:13.984Z,1019.64
2018-05-06T01:13:22.622Z,1019.64
2018-05-06T01:14:31.268Z,1019.63
2018-05-06T01:15:39.908Z,1019.61
2018-05-06T01:16:48.561Z,1019.61
2018-05-06T01:17:57.200Z,1019.64
2018-05-06T01:19:05.840Z,1019.64
2018-05-06T01:20:14.480Z,1019.61
2018-05-06T01:21:23.125Z,1019.63
2018-05-06T01:22:31.771Z,1019.65
2018-05-06T01:23:40.671Z,1019.67
2018-05-06T01:24:49.314Z,1019.64
2018-05-06T01:25:57.947Z,1019.69
2018-05-06T01:27:06.597Z,1019.68
2018-05-06T01:28:15.235Z,1019.67
2018-05-06T01:29:24.152Z,1019.65
2018-05-06T01:30:32.785Z,1019.61
2018-05-06T01:31:41.433Z,1019.6
2018-05-06T01:32:50.073Z,1019.61
2018-05-06T01:33:58.721Z,1019.61
2018-05-06T01:35:07.626Z,1019.61
2018-05-06T01:36:16.534Z,1019.62
2018-05-06T01:37:25.183Z,1019.62
2018-05-06T01:38:33.830Z,1019.63
2018-05-06T01:39:42.476Z,1019.6
2018-05-06T01:40:51.106Z,1019.58
2018-05-06T01:41:59.755Z,1019.62
2018-05-06T01:43:08.397Z,1019.59
2018-05-06T01:44:17.048Z,1019.55
2018-05-06T01:45:25.677Z,1019.55
2018-05-06T01:46:34.324Z,1019.52
2018-05-06T01:47:43.219Z,1019.53
2018-05-06T01:48:51.869Z,1019.49
2018-05-06T01:50:00.501Z,1019.51
2018-05-06T01:51:09.145Z,1019.5
2018-05-06T01:52:17.784Z,1019.51
2018-05-06T01:53:26.435Z,1019.55
2018-05-06T01:54:35.075Z,1019.53
2018-05-06T01:55:43.710Z,1019.56
2018-05-06T01:56:52.350Z,1019.56
2018-05-06T01:58:00.988Z,1019.53
2018-05-06T01:59:09.637Z,1019.54
2018-05-06T02:00:18.275Z,1019.57
2018-05-06T02:01:26.922Z,1019.54
2018-05-06T02:02:35.556Z,1019.57
2018-05-06T02:03:44.206Z,1019.58
2018-05-06T02:04:52.846Z,1019.58
2018-05-06T02:06:01.756Z,1019.58
2018-05-06T02:07:10.388Z,1019.6
2018-05-06T02:08:19.038Z,1019.62
2018-05-06T02:09:27.679Z,1019.6
2018-05-06T02:10:36.319Z,1019.65
2018-05-06T02:11:44.956Z,1019.65
2018-05-06T02:12:53.600Z,1019.6
2018-05-06T02:14:02.245Z,1019.61
2018-05-06T02:15:10.890Z,1019.59
2018-05-06T02:16:19.532Z,1019.59
2018-05-06T02:17:28.162Z,1019.57
2018-05-06T02:18:36.809Z,1019.57
2018-05-06T02:19:45.447Z,1019.56
2018-05-06T02:20:54.093Z,1019.55
2018-05-06T02:22:02.730Z,1019.55
2018-05-06T02:23:11.370Z,1019.54
2018-05-06T02:24:20.012Z,1019.56
2018-05-06T02:25:28.663Z,1019.58
2018-05-06T02:26:37.296Z,1019.53
2018-05-06T02:27:45.943Z,1019.55
2018-05-06T02:28:54.584Z,1019.55
2018-05-06T02:30:03.233Z,1019.55
2018-05-06T02:31:11.872Z,1019.54
2018-05-06T02:32:20.779Z,1019.56
2018-05-06T02:33:29.421Z,1019.56
2018-05-06T02:34:38.063Z,1019.55
2018-05-06T02:35:46.719Z,1019.58
2018-05-06T02:36:55.367Z,1019.57
2018-05-06T02:38:04.020Z,1019.6
2018-05-06T02:39:12.655Z,1019.6
2018-05-06T02:40:21.842Z,1019.6
2018-05-06T02:41:30.505Z,1019.59
2018-05-06T02:42:39.133Z,1019.58
2018-05-06T02:43:47.770Z,1019.6
2018-05-06T02:44:56.964Z,1019.6
2018-05-06T02:46:05.606Z,1019.59
2018-05-06T02:47:14.512Z,1019.59
2018-05-06T02:48:23.149Z,1019.6
2018-05-06T02:49:31.802Z,1019.57
2018-05-06T02:50:40.711Z,1019.6
2018-05-06T02:51:49.622Z,1019.56
2018-05-06T02:52:58.271Z,1019.55
2018-05-06T02:54:07.429Z,1019.55
2018-05-06T02:55:16.072Z,1019.55
2018-05-06T02:56:24.715Z,1019.55
2018-05-06T02:57:33.627Z,1019.56
2018-05-06T02:58:42.263Z,1019.54
2018-05-06T02:59:50.905Z,1019.58
2018-05-06T03:00:59.545Z,1019.54
2018-05-06T03:02:08.189Z,1019.5
2018-05-06T03:03:16.830Z,1019.5
2018-05-06T03:04:25.470Z,1019.52
2018-05-06T03:05:34.108Z,1019.52
2018-05-06T03:06:42.756Z,1019.5
2018-05-06T03:07:51.663Z,1019.5
2018-05-06T03:09:00.302Z,1019.5
2018-05-06T03:10:08.940Z,1019.48
2018-05-06T03:11:17.574Z,1019.43
2018-05-06T03:12:26.272Z,1019.44
2018-05-06T03:13:34.858Z,1019.39
2018-05-06T03:14:44.025Z,1019.4
2018-05-06T03:15:52.661Z,1019.39
2018-05-06T03:17:01.307Z,1019.41
2018-05-06T03:18:09.949Z,1019.41
2018-05-06T03:19:18.593Z,1019.41
2018-05-06T03:20:27.237Z,1019.4
2018-05-06T03:21:35.871Z,1019.4
2018-05-06T03:22:44.518Z,1019.36
2018-05-06T03:23:53.159Z,1019.36
2018-05-06T03:25:01.799Z,1019.34
2018-05-06T03:26:10.435Z,1019.35
2018-05-06T03:27:19.080Z,1019.31
2018-05-06T03:28:27.714Z,1019.33
2018-05-06T03:29:36.355Z,1019.27
2018-05-06T03:30:44.995Z,1019.3
2018-05-06T03:31:53.901Z,1019.26
2018-05-06T03:33:02.537Z,1019.26
2018-05-06T03:34:11.173Z,1019.27
2018-05-06T03:35:19.818Z,1019.29
2018-05-06T03:36:28.723Z,1019.33
2018-05-06T03:37:37.362Z,1019.34
2018-05-06T03:38:45.998Z,1019.3
2018-05-06T03:39:54.644Z,1019.3
2018-05-06T03:41:03.282Z,1019.31
2018-05-06T03:42:11.924Z,1019.25
2018-05-06T03:43:20.828Z,1019.23
2018-05-06T03:44:29.465Z,1019.28
2018-05-06T03:45:38.110Z,1019.29
2018-05-06T03:46:46.753Z,1019.25
2018-05-06T03:47:55.396Z,1019.22
2018-05-06T03:49:04.034Z,1019.21
2018-05-06T03:50:12.671Z,1019.19
2018-05-06T03:51:21.312Z,1019.16
2018-05-06T03:52:29.955Z,1019.14
2018-05-06T03:53:38.596Z,1019.13
2018-05-06T03:54:47.231Z,1019.13
2018-05-06T03:55:55.870Z,1019.1
2018-05-06T03:57:04.515Z,1019.12
2018-05-06T03:58:13.416Z,1019.12
2018-05-06T03:59:22.059Z,1019.11
2018-05-06T04:00:30.847Z,1019.1
2018-05-06T04:01:39.337Z,1019.11
2018-05-06T04:02:47.974Z,1019.13
2018-05-06T04:03:56.615Z,1019.12
2018-05-06T04:05:05.515Z,1019.11
2018-05-06T04:06:14.155Z,1019.11
2018-05-06T04:07:23.059Z,1019.14
2018-05-06T04:08:31.967Z,1019.14
2018-05-06T04:09:40.608Z,1019.13
2018-05-06T04:10:49.242Z,1019.14
2018-05-06T04:11:58.010Z,1019.16
2018-05-06T04:13:06.799Z,1019.12
2018-05-06T04:14:15.707Z,1019.17
2018-05-06T04:15:24.348Z,1019.18
2018-05-06T04:16:33.000Z,1019.19
2018-05-06T04:17:41.637Z,1019.2
2018-05-06T04:18:50.278Z,1019.26
2018-05-06T04:19:58.908Z,1019.25
2018-05-06T04:21:07.812Z,1019.23
2018-05-06T04:22:16.788Z,1019.29
2018-05-06T04:23:25.436Z,1019.24
2018-05-06T04:24:34.079Z,1019.24
2018-05-06T04:25:42.709Z,1019.24
2018-05-06T04:26:51.426Z,1019.23
2018-05-06T04:27:59.994Z,1019.25
2018-05-06T04:29:08.641Z,1019.23
2018-05-06T04:30:17.273Z,1019.2
2018-05-06T04:31:26.188Z,1019.17
2018-05-06T04:32:34.826Z,1019.22
2018-05-06T04:33:43.473Z,1019.26
2018-05-06T04:34:52.109Z,1019.25
2018-05-06T04:36:01.013Z,1019.28
2018-05-06T04:37:09.652Z,1019.28
2018-05-06T04:38:18.302Z,1019.25
2018-05-06T04:39:26.939Z,1019.29
2018-05-06T04:40:35.576Z,1019.28
2018-05-06T04:41:44.216Z,1019.27
2018-05-06T04:42:52.864Z,1019.27
2018-05-06T04:44:01.518Z,1019.27
2018-05-06T04:45:10.150Z,1019.28
2018-05-06T04:46:18.799Z,1019.27
2018-05-06T04:47:27.702Z,1019.27
2018-05-06T04:48:36.353Z,1019.31
2018-05-06T04:49:44.989Z,1019.33
2018-05-06T04:50:53.634Z,1019.3
2018-05-06T04:52:02.279Z,1019.35
2018-05-06T04:53:10.918Z,1019.33
2018-05-06T04:54:19.555Z,1019.34
2018-05-06T04:55:28.197Z,1019.35
2018-05-06T04:56:36.829Z,1019.37
2018-05-06T04:57:45.472Z,1019.4
2018-05-06T04:58:54.117Z,1019.4
2018-05-06T05:00:02.760Z,1019.42
2018-05-06T05:01:11.405Z,1019.42
2018-05-06T05:02:20.042Z,1019.44
2018-05-06T05:03:28.692Z,1019.48
2018-05-06T05:04:37.324Z,1019.46
2018-05-06T05:05:45.973Z,1019.46
2018-05-06T05:06:54.606Z,1019.44
2018-05-06T05:08:03.517Z,1019.41
2018-05-06T05:09:12.153Z,1019.47
2018-05-06T05:10:21.069Z,1019.4
2018-05-06T05:11:29.703Z,1019.43
2018-05-06T05:12:38.344Z,1019.44
2018-05-06T05:13:46.981Z,1019.46
2018-05-06T05:14:55.897Z,1019.47
2018-05-06T05:16:04.809Z,1019.49
2018-05-06T05:17:13.713Z,1019.52
2018-05-06T05:18:22.615Z,1019.5
2018-05-06T05:19:31.255Z,1019.52
2018-05-06T05:20:39.899Z,1019.53
2018-05-06T05:21:48.844Z,1019.56
2018-05-06T05:22:57.489Z,1019.53
2018-05-06T05:24:06.130Z,1019.56
2018-05-06T05:25:14.774Z,1019.54
2018-05-06T05:26:23.416Z,1019.58
2018-05-06T05:27:32.057Z,1019.58
2018-05-06T05:28:40.695Z,1019.6
2018-05-06T05:29:49.342Z,1019.62
2018-05-06T05:30:57.980Z,1019.61
2018-05-06T05:32:06.626Z,1019.64
2018-05-06T05:33:15.261Z,1019.57
2018-05-06T05:34:23.925Z,1019.62
2018-05-06T05:35:32.864Z,1019.59
2018-05-06T05:36:41.513Z,1019.6
2018-05-06T05:37:50.415Z,1019.67
2018-05-06T05:38:59.051Z,1019.66
2018-05-06T05:40:07.693Z,1019.66
2018-05-06T05:41:16.336Z,1019.69
2018-05-06T05:42:25.248Z,1019.72
2018-05-06T05:43:33.886Z,1019.74
2018-05-06T05:44:42.815Z,1019.76
2018-05-06T05:45:51.466Z,1019.77
2018-05-06T05:47:00.376Z,1019.81
2018-05-06T05:48:09.014Z,1019.81
2018-05-06T05:49:17.658Z,1019.84
2018-05-06T05:50:26.297Z,1019.86
2018-05-06T05:51:35.207Z,1019.83
2018-05-06T05:52:43.847Z,1019.83
2018-05-06T05:53:52.492Z,1019.84
2018-05-06T05:55:01.138Z,1019.83
2018-05-06T05:56:09.775Z,1019.84
2018-05-06T05:57:18.421Z,1019.85
2018-05-06T05:58:27.069Z,1019.83
2018-05-06T05:59:35.712Z,1019.87
2018-05-06T06:00:44.350Z,1019.87
2018-05-06T06:01:53.270Z,1019.88
2018-05-06T06:03:01.913Z,1019.93
2018-05-06T06:04:10.556Z,1019.94
2018-05-06T06:05:19.459Z,1019.93
2018-05-06T06:06:28.107Z,1019.93
2018-05-06T06:07:36.749Z,1019.99
2018-05-06T06:08:45.392Z,1020.01
2018-05-06T06:09:54.033Z,1020.04
2018-05-06T06:11:02.679Z,1020.05
2018-05-06T06:12:11.586Z,1020.09
2018-05-06T06:13:20.232Z,1020.13
2018-05-06T06:14:28.877Z,1020.1
2018-05-06T06:15:37.569Z,1020.16
2018-05-06T06:16:46.170Z,1020.15
2018-05-06T06:17:54.815Z,1020.14
2018-05-06T06:19:03.467Z,1020.1
2018-05-06T06:20:12.380Z,1020.08
2018-05-06T06:21:21.032Z,1020.11
2018-05-06T06:22:29.667Z,1020.07
2018-05-06T06:23:38.322Z,1020.08
2018-05-06T06:24:46.955Z,1020.07
2018-05-06T06:25:55.602Z,1020.08
2018-05-06T06:27:04.243Z,1020.07
2018-05-06T06:28:13.162Z,1020.13
2018-05-06T06:29:21.805Z,1020.12
2018-05-06T06:30:30.449Z,1020.16
2018-05-06T06:31:39.086Z,1020.14
2018-05-06T06:32:47.729Z,1020.16
2018-05-06T06:33:56.382Z,1020.16
2018-05-06T06:35:05.025Z,1020.12
2018-05-06T06:36:13.674Z,1020.09
2018-05-06T06:37:22.573Z,1020.07
2018-05-06T06:38:31.496Z,1020.01
2018-05-06T06:39:40.132Z,1020.04
2018-05-06T06:40:48.790Z,1020
2018-05-06T06:41:57.693Z,1019.98
2018-05-06T06:43:06.613Z,1019.96
2018-05-06T06:44:15.256Z,1019.97
2018-05-06T06:45:23.900Z,1019.98
2018-05-06T06:46:32.533Z,1019.99
2018-05-06T06:47:41.178Z,1020.01
2018-05-06T06:48:50.094Z,1019.99
2018-05-06T06:49:58.745Z,1020
2018-05-06T06:51:07.386Z,1020.07
2018-05-06T06:52:16.023Z,1020.05
2018-05-06T06:53:24.669Z,1020.04
2018-05-06T06:54:33.575Z,1020.03
2018-05-06T06:55:42.263Z,1020.06
2018-05-06T06:56:50.865Z,1020
2018-05-06T06:57:59.515Z,1020
2018-05-06T06:59:08.153Z,1020.01
2018-05-06T07:00:17.075Z,1020.06
2018-05-06T07:01:25.715Z,1020.04
2018-05-06T07:02:34.362Z,1020.03
2018-05-06T07:03:43.007Z,1020.04
2018-05-06T07:04:51.660Z,1020.06
2018-05-06T07:06:00.874Z,1020.06
2018-05-06T07:07:09.773Z,1020.07
2018-05-06T07:08:18.414Z,1020.09
2018-05-06T07:09:27.060Z,1020.14
2018-05-06T07:10:35.983Z,1020.12
2018-05-06T07:11:44.623Z,1020.16
2018-05-06T07:12:53.272Z,1020.2
2018-05-06T07:14:01.910Z,1020.21
2018-05-06T07:15:10.557Z,1020.24
2018-05-06T07:16:19.207Z,1020.23
2018-05-06T07:17:28.111Z,1020.22
2018-05-06T07:18:36.764Z,1020.16
2018-05-06T07:19:45.402Z,1020.18
2018-05-06T07:20:54.051Z,1020.17
2018-05-06T07:22:02.695Z,1020.18
2018-05-06T07:23:11.349Z,1020.2
2018-05-06T07:24:19.996Z,1020.19
2018-05-06T07:25:28.901Z,1020.23
2018-05-06T07:26:37.812Z,1020.28
2018-05-06T07:27:46.725Z,1020.27
2018-05-06T07:28:55.384Z,1020.29
2018-05-06T07:30:04.026Z,1020.27
2018-05-06T07:31:12.677Z,1020.25
2018-05-06T07:32:21.319Z,1020.3
2018-05-06T07:33:29.967Z,1020.28
2018-05-06T07:34:38.609Z,1020.36
2018-05-06T07:35:47.541Z,1020.33
2018-05-06T07:36:56.170Z,1020.38
2018-05-06T07:38:05.088Z,1020.43
2018-05-06T07:39:13.797Z,1020.37
2018-05-06T07:40:22.379Z,1020.43
2018-05-06T07:41:31.030Z,1020.36
2018-05-06T07:42:39.663Z,1020.37
2018-05-06T07:43:48.309Z,1020.35
2018-05-06T07:44:56.955Z,1020.36
2018-05-06T07:46:05.603Z,1020.3
2018-05-06T07:47:14.241Z,1020.31
2018-05-06T07:48:22.891Z,1020.3
2018-05-06T07:49:31.540Z,1020.3
2018-05-06T07:50:40.466Z,1020.27
2018-05-06T07:51:49.097Z,1020.26
2018-05-06T07:52:57.749Z,1020.27
2018-05-06T07:54:06.389Z,1020.25
2018-05-06T07:55:15.046Z,1020.29
2018-05-06T07:56:23.688Z,1020.3
2018-05-06T07:57:32.598Z,1020.24
2018-05-06T07:58:41.241Z,1020.28
2018-05-06T07:59:49.898Z,1020.23
2018-05-06T08:00:58.541Z,1020.29
2018-05-06T08:02:07.180Z,1020.29
2018-05-06T08:03:15.823Z,1020.32
2018-05-06T08:04:24.465Z,1020.36
2018-05-06T08:05:33.122Z,1020.36
2018-05-06T08:06:41.764Z,1020.41
2018-05-06T08:07:50.418Z,1020.39
2018-05-06T08:08:59.053Z,1020.41
2018-05-06T08:10:07.711Z,1020.44
2018-05-06T08:11:16.352Z,1020.44
2018-05-06T08:12:25.006Z,1020.45
2018-05-06T08:13:33.643Z,1020.45
2018-05-06T08:14:42.295Z,1020.49
2018-05-06T08:15:50.940Z,1020.46
2018-05-06T08:16:59.588Z,1020.52
2018-05-06T08:18:08.231Z,1020.51
2018-05-06T08:19:16.880Z,1020.55
2018-05-06T08:20:25.528Z,1020.54
2018-05-06T08:21:34.436Z,1020.53
2018-05-06T08:22:43.087Z,1020.57
2018-05-06T08:23:51.728Z,1020.54
2018-05-06T08:25:00.374Z,1020.53
2018-05-06T08:26:09.021Z,1020.54
2018-05-06T08:27:17.675Z,1020.51
2018-05-06T08:28:26.315Z,1020.46
2018-05-06T08:29:34.963Z,1020.52
2018-05-06T08:30:43.608Z,1020.51
2018-05-06T08:31:52.260Z,1020.48
2018-05-06T08:33:00.902Z,1020.48
2018-05-06T08:34:09.557Z,1020.45
2018-05-06T08:35:18.196Z,1020.45
2018-05-06T08:36:26.850Z,1020.49
2018-05-06T08:37:35.565Z,1020.48
2018-05-06T08:38:44.143Z,1020.44
2018-05-06T08:39:52.789Z,1020.45
2018-05-06T08:41:01.439Z,1020.42
2018-05-06T08:42:10.091Z,1020.35
2018-05-06T08:43:18.738Z,1020.34
2018-05-06T08:44:27.385Z,1020.32
2018-05-06T08:45:36.028Z,1020.31
2018-05-06T08:46:44.983Z,1020.31
2018-05-06T08:47:53.631Z,1020.28
2018-05-06T08:49:02.279Z,1020.28
2018-05-06T08:50:10.923Z,1020.25
2018-05-06T08:51:19.575Z,1020.25
2018-05-06T08:52:28.221Z,1020.28
2018-05-06T08:53:37.133Z,1020.21
2018-05-06T08:54:45.778Z,1020.2
2018-05-06T08:55:54.433Z,1020.15
2018-05-06T08:57:03.080Z,1020.15
2018-05-06T08:58:11.734Z,1020.14
2018-05-06T08:59:20.380Z,1020.13
2018-05-06T09:00:29.024Z,1020.12
2018-05-06T09:01:37.672Z,1020.11
2018-05-06T09:02:46.321Z,1020.09
2018-05-06T09:03:54.974Z,1020.11
2018-05-06T09:05:03.620Z,1020.13
2018-05-06T09:06:12.270Z,1020.15
2018-05-06T09:07:20.922Z,1020.14
2018-05-06T09:08:29.582Z,1020.15
2018-05-06T09:09:38.226Z,1020.15
2018-05-06T09:10:46.877Z,1020.13
2018-05-06T09:11:55.519Z,1020.1
2018-05-06T09:13:04.195Z,1020.11
2018-05-06T09:14:12.839Z,1020.07
2018-05-06T09:15:21.751Z,1020.08
2018-05-06T09:16:30.664Z,1020.07
2018-05-06T09:17:39.310Z,1020.06
2018-05-06T09:18:47.968Z,1020.06
2018-05-06T09:19:56.969Z,1020.07
2018-05-06T09:21:05.533Z,1020.03
2018-05-06T09:22:14.172Z,1020.06
2018-05-06T09:23:22.829Z,1020
2018-05-06T09:24:31.735Z,1019.98
2018-05-06T09:25:40.427Z,1019.97
2018-05-06T09:26:49.028Z,1019.96
2018-05-06T09:27:57.690Z,1019.95
2018-05-06T09:29:06.336Z,1019.97
2018-05-06T09:30:14.995Z,1019.97
2018-05-06T09:31:23.636Z,1020
2018-05-06T09:32:32.286Z,1019.99
2018-05-06T09:33:40.942Z,1019.98
2018-05-06T09:34:49.590Z,1019.95
2018-05-06T09:35:58.240Z,1019.97
2018-05-06T09:37:06.879Z,1020.02
2018-05-06T09:38:15.531Z,1019.97
2018-05-06T09:39:24.176Z,1020.02
2018-05-06T09:40:33.097Z,1020.06
2018-05-06T09:41:42.013Z,1020.05
2018-05-06T09:42:50.927Z,1019.99
2018-05-06T09:43:59.573Z,1019.99
2018-05-06T09:45:08.231Z,1020.03
2018-05-06T09:46:16.870Z,1020.01
2018-05-06T09:47:25.523Z,1019.98
2018-05-06T09:48:34.170Z,1020
2018-05-06T09:49:42.827Z,1019.99
2018-05-06T09:50:51.475Z,1019.97
2018-05-06T09:52:00.121Z,1019.98
2018-05-06T09:53:08.768Z,1019.93
2018-05-06T09:54:17.415Z,1019.95
2018-05-06T09:55:26.071Z,1020.01
2018-05-06T09:56:34.716Z,1019.96
2018-05-06T09:57:43.377Z,1019.97
2018-05-06T09:58:52.352Z,1019.94
2018-05-06T10:00:01.012Z,1019.96
2018-05-06T10:01:09.657Z,1019.96
2018-05-06T10:02:18.314Z,1019.96
2018-05-06T10:03:26.955Z,1019.99
2018-05-06T10:04:35.614Z,1019.93
2018-05-06T10:05:44.259Z,1019.95
2018-05-06T10:06:52.916Z,1019.92
2018-05-06T10:08:01.559Z,1019.96
2018-05-06T10:09:10.212Z,1019.96
2018-05-06T10:10:18.865Z,1019.95
2018-05-06T10:11:27.522Z,1019.9
2018-05-06T10:12:36.174Z,1019.92
2018-05-06T10:13:45.093Z,1019.95
2018-05-06T10:14:53.744Z,1019.95
2018-05-06T10:16:02.395Z,1019.96
2018-05-06T10:17:11.062Z,1019.94
2018-05-06T10:18:19.972Z,1019.97
2018-05-06T10:19:28.620Z,1019.95
2018-05-06T10:20:37.272Z,1019.98
2018-05-06T10:21:45.929Z,1019.94
2018-05-06T10:22:54.839Z,1019.97
2018-05-06T10:24:03.499Z,1019.94
2018-05-06T10:25:12.146Z,1019.94
2018-05-06T10:26:21.082Z,1019.89
2018-05-06T10:27:29.714Z,1019.86
2018-05-06T10:28:38.365Z,1019.9
2018-05-06T10:29:47.011Z,1019.82
2018-05-06T10:30:55.661Z,1019.81
2018-05-06T10:32:04.317Z,1019.86
2018-05-06T10:33:12.966Z,1019.83
2018-05-06T10:34:21.617Z,1019.82
2018-05-06T10:35:30.263Z,1019.83
2018-05-06T10:36:39.182Z,1019.82
2018-05-06T10:37:47.836Z,1019.77
2018-05-06T10:38:56.486Z,1019.76
2018-05-06T10:40:05.405Z,1019.73
2018-05-06T10:41:14.061Z,1019.71
2018-05-06T10:42:23.033Z,1019.76
2018-05-06T10:43:31.627Z,1019.72
2018-05-06T10:44:40.273Z,1019.64
2018-05-06T10:45:48.928Z,1019.63
2018-05-06T10:46:57.633Z,1019.63
2018-05-06T10:48:06.233Z,1019.54
2018-05-06T10:49:14.900Z,1019.55
2018-05-06T10:50:23.623Z,1019.56
2018-05-06T10:51:32.187Z,1019.56
2018-05-06T10:52:40.839Z,1019.58
2018-05-06T10:53:50.024Z,1019.53
2018-05-06T10:54:58.669Z,1019.54
2018-05-06T10:56:07.319Z,1019.53
2018-05-06T10:57:16.246Z,1019.51
2018-05-06T10:58:24.900Z,1019.55
2018-05-06T10:59:33.547Z,1019.47
2018-05-06T11:00:42.197Z,1019.48
2018-05-06T11:01:50.852Z,1019.44
2018-05-06T11:02:59.506Z,1019.48
2018-05-06T11:04:08.285Z,1019.47
2018-05-06T11:05:16.817Z,1019.39
2018-05-06T11:06:25.457Z,1019.41
2018-05-06T11:07:34.109Z,1019.37
2018-05-06T11:08:42.764Z,1019.37
2018-05-06T11:09:51.413Z,1019.38
2018-05-06T11:11:00.063Z,1019.34
2018-05-06T11:12:08.721Z,1019.38
2018-05-06T11:13:17.366Z,1019.38
2018-05-06T11:14:26.288Z,1019.4
2018-05-06T11:15:34.939Z,1019.4
2018-05-06T11:16:43.602Z,1019.44
2018-05-06T11:17:52.315Z,1019.36
2018-05-06T11:19:00.892Z,1019.39
2018-05-06T11:20:09.543Z,1019.39
2018-05-06T11:21:18.198Z,1019.31
2018-05-06T11:22:26.851Z,1019.32
2018-05-06T11:23:35.499Z,1019.34
2018-05-06T11:24:44.148Z,1019.23
2018-05-06T11:25:52.802Z,1019.33
2018-05-06T11:27:01.724Z,1019.27
2018-05-06T11:28:10.637Z,1019.31
2018-05-06T11:29:19.292Z,1019.26
2018-05-06T11:30:27.939Z,1019.26
2018-05-06T11:31:36.865Z,1019.22
2018-05-06T11:32:45.860Z,1019.28
2018-05-06T11:33:54.435Z,1019.24
2018-05-06T11:35:03.088Z,1019.24
2018-05-06T11:36:12.011Z,1019.3
2018-05-06T11:37:20.662Z,1019.25
2018-05-06T11:38:29.578Z,1019.27
2018-05-06T11:39:38.226Z,1019.22
2018-05-06T11:40:47.154Z,1019.2
2018-05-06T11:41:55.797Z,1019.22
2018-05-06T11:43:04.456Z,1019.2
2018-05-06T11:44:13.106Z,1019.23
2018-05-06T11:45:21.753Z,1019.2
2018-05-06T11:46:30.403Z,1019.25
2018-05-06T11:47:39.321Z,1019.19
2018-05-06T11:48:47.980Z,1019.18
2018-05-06T11:49:56.629Z,1019.21
2018-05-06T11:51:05.285Z,1019.25
2018-05-06T11:52:13.938Z,1019.23
2018-05-06T11:53:22.855Z,1019.24
2018-05-06T11:54:31.546Z,1019.24
2018-05-06T11:55:40.156Z,1019.21
2018-05-06T11:56:48.807Z,1019.22
2018-05-06T11:57:57.463Z,1019.19
2018-05-06T11:59:06.111Z,1019.14
2018-05-06T12:00:14.762Z,1019.08
2018-05-06T12:01:23.676Z,1019.12
2018-05-06T12:02:32.329Z,1019.1
2018-05-06T12:03:40.987Z,1019.17
2018-05-06T12:04:49.637Z,1019.17
2018-05-06T12:05:58.288Z,1019.12
2018-05-06T12:07:06.938Z,1019.06
2018-05-06T12:08:15.599Z,1019.11
2018-05-06T12:09:24.245Z,1019.04
2018-05-06T12:10:32.901Z,1019.04
2018-05-06T12:11:41.546Z,1019.08
2018-05-06T12:12:50.212Z,1019.04
2018-05-06T12:13:59.652Z,1019.04
2018-05-06T12:15:08.306Z,1019.04
2018-05-06T12:16:16.949Z,1019.03
2018-05-06T12:17:25.607Z,1018.98
2018-05-06T12:18:34.267Z,1019
2018-05-06T12:19:43.197Z,1018.92
2018-05-06T12:20:51.851Z,1018.91
2018-05-06T12:22:00.850Z,1018.91
2018-05-06T12:23:09.418Z,1018.98
2018-05-06T12:24:18.071Z,1018.97
2018-05-06T12:25:26.731Z,1018.96
2018-05-06T12:26:35.633Z,1018.9
2018-05-06T12:27:44.555Z,1018.89
2018-05-06T12:28:53.201Z,1018.88
2018-05-06T12:30:01.865Z,1018.87
2018-05-06T12:31:10.508Z,1018.86
2018-05-06T12:32:19.161Z,1018.81
2018-05-06T12:33:28.081Z,1018.81
2018-05-06T12:34:37.028Z,1018.82
2018-05-06T12:35:45.677Z,1018.8
2018-05-06T12:36:54.325Z,1018.78
2018-05-06T12:38:03.240Z,1018.74
2018-05-06T12:39:11.892Z,1018.75
2018-05-06T12:40:20.558Z,1018.78
2018-05-06T12:41:29.206Z,1018.76
2018-05-06T12:42:37.863Z,1018.75
2018-05-06T12:43:46.513Z,1018.66
2018-05-06T12:44:55.445Z,1018.7
2018-05-06T12:46:04.357Z,1018.72
2018-05-06T12:47:13.282Z,1018.73
2018-05-06T12:48:21.925Z,1018.68
2018-05-06T12:49:30.602Z,1018.67
2018-05-06T12:50:39.239Z,1018.63
2018-05-06T12:51:47.896Z,1018.62
2018-05-06T12:52:56.537Z,1018.65
2018-05-06T12:54:05.195Z,1018.65
2018-05-06T12:55:13.940Z,1018.61
2018-05-06T12:56:22.509Z,1018.56
2018-05-06T12:57:31.163Z,1018.6
2018-05-06T12:58:39.807Z,1018.55
2018-05-06T12:59:48.465Z,1018.52
2018-05-06T13:00:57.112Z,1018.47
2018-05-06T13:02:05.782Z,1018.45
2018-05-06T13:03:14.685Z,1018.47
2018-05-06T13:04:23.344Z,1018.46
2018-05-06T13:05:31.990Z,1018.46
2018-05-06T13:06:40.637Z,1018.42
2018-05-06T13:07:49.295Z,1018.39
2018-05-06T13:08:57.943Z,1018.36
2018-05-06T13:10:06.605Z,1018.38
2018-05-06T13:11:15.248Z,1018.33
2018-05-06T13:12:24.166Z,1018.43
2018-05-06T13:13:32.817Z,1018.3
2018-05-06T13:14:41.473Z,1018.32
2018-05-06T13:15:50.132Z,1018.34
2018-05-06T13:16:59.048Z,1018.28
2018-05-06T13:18:07.964Z,1018.31
2018-05-06T13:19:16.884Z,1018.27
2018-05-06T13:20:25.541Z,1018.26
2018-05-06T13:21:34.188Z,1018.26
2018-05-06T13:22:42.844Z,1018.28
2018-05-06T13:23:51.496Z,1018.27
2018-05-06T13:25:00.156Z,1018.28
2018-05-06T13:26:08.807Z,1018.26
2018-05-06T13:27:17.458Z,1018.25
2018-05-06T13:28:26.109Z,1018.18
2018-05-06T13:29:34.765Z,1018.21
2018-05-06T13:30:43.412Z,1018.15
2018-05-06T13:31:52.329Z,1018.11
2018-05-06T13:33:00.979Z,1018.21
2018-05-06T13:34:09.892Z,1018.12
2018-05-06T13:35:18.550Z,1018.13
2018-05-06T13:36:27.475Z,1018.16
2018-05-06T13:37:36.129Z,1018.1
2018-05-06T13:38:44.776Z,1018.1
2018-05-06T13:39:53.438Z,1018.09
2018-05-06T13:41:02.363Z,1018.07
2018-05-06T13:42:11.021Z,1018.05
2018-05-06T13:43:19.930Z,1018.09
2018-05-06T13:44:28.587Z,1018.09
2018-05-06T13:45:37.512Z,1018.04
2018-05-06T13:46:46.168Z,1018.05
2018-05-06T13:47:54.817Z,1018.04
2018-05-06T13:49:03.472Z,1018
2018-05-06T13:50:12.278Z,1017.99
2018-05-06T13:51:21.149Z,1018.03
2018-05-06T13:52:29.794Z,1017.99
2018-05-06T13:53:38.443Z,1017.98